WEATHER/FLIGHT PLANNING

Hattiesburg Radar

 

 

 

 

Weather Links

Flight Planning Links

 

METAR

2017/01/24 14:53 KHBG 241453Z AUTO 12003KT 10SM CLR 08/06 A2999 RMK AO2 SLP154 T00780061 51014

TAF

2017/01/24 12:27 TAF KHBG 241124Z 2412/2512 00000KT 6SM BR SKC FM241400 17004KT P6SM SCT250 FM250800 18003KT 4SM BR SCT003 BKN250 FM251000 00000KT 1SM BR BKN001